Time;durP1;ratioP1;P1;durP2;ratioP2;P2;SDS_P1;SDS_P2;PMS_P1;PMS_P2;Temp;Humidity;BMP_temperature;BMP_pressure;BME280_temperature;BME280_humidity;BME280_pressure;Samples;Min_cycle;Max_cycle;Signal;HPM_P1;HPM_P2
2022/11/24 00:01:50;;;;;;;69.37;29.40;;;0.60;99.90;;;;;;10036276;29;20207;-79
2022/11/24 00:07:11;;;;;;;62.43;27.63;;;0.50;99.90;;;;;;10041439;29;20267;-79
2022/11/24 00:12:33;;;;;;;58.60;26.87;;;0.50;99.90;;;;;;10041345;29;20240;-81
2022/11/24 00:17:54;;;;;;;58.93;28.23;;;0.60;99.90;;;;;;10056387;29;20532;-78
2022/11/24 00:23:15;;;;;;;80.33;30.73;;;0.60;99.90;;;;;;10033867;29;20210;-79
2022/11/24 00:28:38;;;;;;;69.87;29.63;;;0.70;99.90;;;;;;10061821;29;20206;-78
2022/11/24 00:34:01;;;;;;;63.50;28.93;;;0.70;99.90;;;;;;10117194;29;20260;-79
2022/11/24 00:39:23;;;;;;;66.10;32.17;;;0.70;99.90;;;;;;10139742;29;20200;-78
2022/11/24 00:44:45;;;;;;;72.77;31.83;;;0.60;99.90;;;;;;10119220;29;20202;-78
2022/11/24 00:50:07;;;;;;;70.70;30.03;;;0.60;99.90;;;;;;10118426;29;20275;-89
2022/11/24 00:55:28;;;;;;;64.10;27.30;;;0.50;99.90;;;;;;10119846;29;20260;-90
2022/11/24 01:00:51;;;;;;;67.23;28.53;;;0.50;99.90;;;;;;10117820;29;20198;-89
2022/11/24 01:06:15;;;;;;;70.43;32.47;;;0.60;99.90;;;;;;10117414;29;20200;-89
2022/11/24 01:17:16;;;;;;;66.37;27.37;;;0.60;99.90;;;;;;10086506;29;20434;-88
2022/11/24 01:22:38;;;;;;;64.13;27.63;;;0.50;99.90;;;;;;10085783;29;20395;-89
2022/11/24 01:27:59;;;;;;;57.17;26.53;;;0.50;99.90;;;;;;10085312;29;20217;-88
2022/11/24 01:33:20;;;;;;;60.53;26.70;;;0.40;99.90;;;;;;10087038;29;20228;-88
2022/11/24 01:38:42;;;;;;;60.77;26.80;;;0.40;99.90;;;;;;10125050;29;20211;-88
2022/11/24 01:44:28;;;;;;;61.07;26.80;;;0.40;99.90;;;;;;10123273;29;20319;-82
2022/11/24 01:49:54;;;;;;;60.40;27.17;;;0.30;99.90;;;;;;10097187;29;20211;-88
2022/11/24 01:55:24;;;;;;;69.47;28.13;;;0.40;99.90;;;;;;10110442;29;20237;-81
2022/11/24 02:00:46;;;;;;;66.80;29.53;;;0.40;99.90;;;;;;10123104;29;20212;-87
2022/11/24 02:06:12;;;;;;;60.50;25.50;;;0.30;99.90;;;;;;10109930;29;20207;-88
2022/11/24 02:11:37;;;;;;;84.53;36.20;;;0.40;99.90;;;;;;10109319;29;20238;-88
2022/11/24 02:16:59;;;;;;;63.93;29.60;;;0.40;99.90;;;;;;10075000;29;20241;-85
2022/11/24 02:22:38;;;;;;;76.83;32.40;;;0.40;99.90;;;;;;10083865;29;20284;-89
2022/11/24 02:28:03;;;;;;;62.70;28.17;;;0.50;99.90;;;;;;10047679;29;20217;-82
2022/11/24 02:33:26;;;;;;;69.80;28.30;;;0.50;99.90;;;;;;10097882;29;20239;-77
2022/11/24 02:38:47;;;;;;;67.37;27.40;;;0.50;99.90;;;;;;10108581;29;20477;-85
2022/11/24 02:44:08;;;;;;;62.27;26.73;;;0.60;99.90;;;;;;10108181;29;20283;-78
2022/11/24 02:49:29;;;;;;;65.67;27.70;;;0.70;99.90;;;;;;10108356;29;20280;-85
2022/11/24 02:54:51;;;;;;;65.40;30.40;;;0.70;99.90;;;;;;10122595;29;20298;-88
2022/11/24 03:00:13;;;;;;;71.13;27.47;;;0.70;78.30;;;;;;10108685;29;20201;-79
2022/11/24 03:05:34;;;;;;;57.70;26.63;;;0.60;78.40;;;;;;10113534;29;20225;-88
2022/11/24 03:10:56;;;;;;;63.57;27.83;;;0.60;99.90;;;;;;10107973;29;20220;-89
2022/11/24 03:16:17;;;;;;;60.23;26.80;;;0.50;99.90;;;;;;10092022;29;20403;-90
2022/11/24 03:21:39;;;;;;;63.53;27.50;;;0.60;99.90;;;;;;10081645;29;20224;-91
2022/11/24 03:27:00;;;;;;;59.33;25.97;;;0.60;98.30;;;;;;10052741;29;20439;-88
2022/11/24 03:32:22;;;;;;;61.57;25.90;;;0.60;99.90;;;;;;10088420;29;20232;-90
2022/11/24 03:37:43;;;;;;;66.37;27.77;;;0.60;99.90;;;;;;10134373;29;20222;-79
2022/11/24 03:43:04;;;;;;;61.30;26.53;;;0.70;92.10;;;;;;10131458;29;20208;-79
2022/11/24 03:48:26;;;;;;;70.50;30.37;;;0.80;44.60;;;;;;10106363;29;20208;-82
2022/11/24 03:53:47;;;;;;;74.77;33.17;;;0.80;33.70;;;;;;10105639;29;20214;-90
2022/11/24 03:59:08;;;;;;;97.23;40.13;;;0.70;21.50;;;;;;10118713;29;20387;-90
2022/11/24 04:04:29;;;;;;;68.70;28.33;;;0.70;40.10;;;;;;10105659;29;20214;-77
2022/11/24 04:09:51;;;;;;;85.67;38.87;;;0.70;35.00;;;;;;10118162;29;20216;-79
2022/11/24 04:15:17;;;;;;;66.03;29.07;;;0.70;13.40;;;;;;10097713;29;20230;-88
2022/11/24 04:20:40;;;;;;;52.13;24.33;;;0.70;18.80;;;;;;10068136;29;20559;-79
2022/11/24 04:26:01;;;;;;;51.50;23.07;;;0.60;15.90;;;;;;10080407;29;20217;-79
2022/11/24 04:31:22;;;;;;;61.47;24.97;;;0.60;10.10;;;;;;10078901;29;20224;-90
2022/11/24 04:36:44;;;;;;;58.93;26.97;;;0.60;26.10;;;;;;10091682;29;20287;-83
2022/11/24 04:42:05;;;;;;;61.80;25.97;;;0.60;35.60;;;;;;10117425;29;20432;-84
2022/11/24 04:47:27;;;;;;;67.33;28.33;;;0.50;38.40;;;;;;10117493;29;20207;-78
2022/11/24 04:52:48;;;;;;;65.47;27.57;;;0.50;56.00;;;;;;10111762;29;20531;-84
2022/11/24 04:58:10;;;;;;;62.77;25.77;;;0.50;66.60;;;;;;10129756;29;20198;-89
2022/11/24 05:03:31;;;;;;;55.10;24.17;;;0.60;74.70;;;;;;10113027;29;20204;-84
2022/11/24 05:08:53;;;;;;;51.00;23.73;;;0.60;41.50;;;;;;10099022;29;20201;-86
2022/11/24 05:14:14;;;;;;;44.27;21.37;;;0.60;29.60;;;;;;10098517;29;20336;-88
2022/11/24 05:19:35;;;;;;;52.10;22.20;;;0.60;6.00;;;;;;10072802;29;20244;-82
2022/11/24 05:24:57;;;;;;;54.20;26.57;;;0.70;8.60;;;;;;10072052;29;20220;-88
2022/11/24 05:30:18;;;;;;;68.67;29.80;;;0.70;6.50;;;;;;10076840;29;20210;-81
2022/11/24 05:35:39;;;;;;;69.53;29.93;;;0.60;30.10;;;;;;10112970;29;20293;-80
2022/11/24 05:41:04;;;;;;;73.67;32.33;;;0.60;43.10;;;;;;10110082;29;20204;-80
2022/11/24 05:46:25;;;;;;;72.63;31.00;;;0.50;83.20;;;;;;10109952;29;20432;-81
2022/11/24 05:51:47;;;;;;;66.37;28.43;;;0.60;97.30;;;;;;10096868;29;20233;-81
2022/11/24 05:57:08;;;;;;;68.47;29.77;;;0.60;91.00;;;;;;10109151;29;20403;-79
2022/11/24 06:02:30;;;;;;;83.13;32.30;;;0.50;85.30;;;;;;10109029;29;20211;-80
2022/11/24 06:07:51;;;;;;;95.33;39.67;;;0.50;96.10;;;;;;10108983;29;20235;-80
2022/11/24 06:13:12;;;;;;;86.77;41.40;;;0.50;96.40;;;;;;10121893;29;20225;-82
2022/11/24 06:18:33;;;;;;;70.80;32.57;;;0.50;99.90;;;;;;10109126;29;20479;-80
2022/11/24 06:23:54;;;;;;;62.40;28.37;;;0.60;99.90;;;;;;10091234;29;20294;-84
2022/11/24 06:29:16;;;;;;;54.07;25.23;;;0.70;77.20;;;;;;10085812;29;20491;-83
2022/11/24 06:34:37;;;;;;;52.53;23.47;;;0.80;24.60;;;;;;10119856;29;20243;-82
2022/11/24 06:39:58;;;;;;;57.87;24.63;;;0.90;1.00;;;;;;10095112;29;20261;-82
2022/11/24 06:45:19;;;;;;;80.20;36.53;;;0.80;1.00;;;;;;10107607;29;20215;-79
2022/11/24 06:50:41;;;;;;;73.07;35.63;;;0.90;1.00;;;;;;10120279;29;20214;-82
2022/11/24 06:56:04;;;;;;;62.83;29.13;;;0.90;1.00;;;;;;10093970;29;20213;-81
2022/11/24 07:01:27;;;;;;;63.53;30.63;;;0.90;1.00;;;;;;10107334;29;20205;-88
2022/11/24 07:06:49;;;;;;;67.90;30.07;;;0.70;1.00;;;;;;10120788;29;20232;-83
2022/11/24 07:12:10;;;;;;;70.30;33.93;;;0.60;27.80;;;;;;10105766;29;20546;-80
2022/11/24 07:17:38;;;;;;;72.73;32.27;;;0.70;33.20;;;;;;10068477;29;20526;-80
2022/11/24 07:22:59;;;;;;;72.47;31.67;;;0.60;41.00;;;;;;10080636;29;20202;-87
2022/11/24 07:28:20;;;;;;;80.17;34.43;;;0.60;73.40;;;;;;10082368;29;20213;-88
2022/11/24 07:33:41;;;;;;;83.97;33.30;;;0.70;58.00;;;;;;10097845;29;20235;-88
2022/11/24 07:39:05;;;;;;;85.30;34.43;;;0.70;48.60;;;;;;10106949;29;20200;-90
2022/11/24 07:44:27;;;;;;;75.37;31.53;;;0.70;51.80;;;;;;10119310;29;20423;-80
2022/11/24 07:49:48;;;;;;;69.57;30.40;;;0.60;66.30;;;;;;10107626;29;20212;-86
2022/11/24 07:55:09;;;;;;;72.23;31.97;;;0.70;88.40;;;;;;10118774;29;20301;-80
2022/11/24 08:00:31;;;;;;;73.40;31.77;;;0.60;89.30;;;;;;10118583;29;20195;-81
2022/11/24 08:05:56;;;;;;;68.13;30.40;;;0.60;75.30;;;;;;10105811;29;20207;-91
2022/11/24 08:11:35;;;;;;;79.03;32.53;;;0.60;91.30;;;;;;10108456;29;20228;-80
2022/11/24 08:16:57;;;;;;;70.03;30.57;;;0.60;87.80;;;;;;10074309;29;20311;-81
2022/11/24 08:22:18;;;;;;;70.50;32.53;;;0.70;76.30;;;;;;10068243;29;20248;-87
2022/11/24 08:27:40;;;;;;;67.07;29.70;;;0.80;49.90;;;;;;10063304;29;20226;-80
2022/11/24 08:33:01;;;;;;;69.30;31.17;;;0.70;24.20;;;;;;10090882;29;20242;-84
2022/11/24 08:38:23;;;;;;;69.57;27.73;;;0.70;25.20;;;;;;10076049;29;20237;-80
2022/11/24 08:43:44;;;;;;;69.60;29.97;;;0.70;53.50;;;;;;10055996;29;20220;-83
2022/11/24 08:49:06;;;;;;;70.23;30.90;;;0.80;53.40;;;;;;10053900;29;20212;-81
2022/11/24 08:54:27;;;;;;;69.50;29.20;;;0.90;47.80;;;;;;10055908;29;20506;-85
2022/11/24 08:59:48;;;;;;;72.43;30.10;;;0.80;26.90;;;;;;10045299;29;20384;-85
2022/11/24 09:05:09;;;;;;;72.73;32.03;;;0.90;40.00;;;;;;10069462;29;20217;-81
2022/11/24 09:10:42;;;;;;;63.00;29.37;;;1.00;1.00;;;;;;10063137;29;20277;-83
2022/11/24 09:16:06;;;;;;;75.13;31.40;;;0.90;3.10;;;;;;10045955;29;20232;-85
2022/11/24 09:21:28;;;;;;;64.63;27.77;;;0.90;22.10;;;;;;10071635;29;20229;-87
2022/11/24 09:26:50;;;;;;;64.13;28.03;;;0.80;21.00;;;;;;10066244;29;20304;-82
2022/11/24 09:32:11;;;;;;;77.33;30.77;;;0.80;11.80;;;;;;10056440;29;20222;-82
2022/11/24 09:37:33;;;;;;;78.37;32.27;;;0.70;1.00;;;;;;10063585;29;20216;-84
2022/11/24 09:43:04;;;;;;;71.57;30.43;;;0.70;11.40;;;;;;10060767;29;20544;-86
2022/11/24 09:48:32;;;;;;;80.83;33.77;;;0.90;30.10;;;;;;10064560;29;20218;-82
2022/11/24 09:54:03;;;;;;;79.33;33.03;;;0.90;12.50;;;;;;10062792;29;20546;-80
2022/11/24 09:59:26;;;;;;;75.17;29.57;;;0.90;1.00;;;;;;10061814;29;20506;-81
2022/11/24 10:04:47;;;;;;;75.33;29.37;;;1.00;1.00;;;;;;10077489;29;20207;-80
2022/11/24 10:10:23;;;;;;;68.23;28.70;;;1.00;1.00;;;;;;10065496;29;20213;-81
2022/11/24 10:15:51;;;;;;;73.13;30.83;;;1.00;1.00;;;;;;10046799;29;20296;-81
2022/11/24 10:21:31;;;;;;;80.70;31.57;;;1.10;1.00;;;;;;10053949;29;20260;-84
2022/11/24 10:27:01;;;;;;;93.73;36.87;;;1.10;1.00;;;;;;10101454;29;20550;-83
2022/11/24 10:32:35;;;;;;;77.93;34.23;;;1.10;1.00;;;;;;10038221;29;20237;-88
2022/11/24 10:38:20;;;;;;;80.37;38.03;;;1.20;1.00;;;;;;10047602;29;20213;-83
2022/11/24 10:43:42;;;;;;;82.40;36.27;;;1.20;1.00;;;;;;10064984;29;20213;-89
2022/11/24 10:49:04;;;;;;;82.50;35.47;;;1.20;1.00;;;;;;10056131;29;20206;-81
2022/11/24 10:54:26;;;;;;;79.70;37.87;;;1.20;1.00;;;;;;10030105;29;20420;-81
2022/11/24 10:59:48;;;;;;;67.30;30.73;;;1.20;1.00;;;;;;10053260;29;20204;-79
2022/11/24 11:05:31;;;;;;;65.87;31.53;;;1.20;1.00;;;;;;10073738;29;20204;-81
2022/11/24 11:11:13;;;;;;;96.43;37.63;;;1.20;1.00;;;;;;10051449;29;20269;-88
2022/11/24 11:16:52;;;;;;;100.43;39.07;;;1.20;1.00;;;;;;10080390;29;20216;-82
2022/11/24 11:22:27;;;;;;;88.67;36.80;;;1.20;1.00;;;;;;10067643;29;20213;-82
2022/11/24 11:27:48;;;;;;;86.70;39.63;;;1.10;1.00;;;;;;10064859;29;20328;-86
2022/11/24 11:33:31;;;;;;;78.30;33.63;;;1.20;1.00;;;;;;10090563;29;20230;-82
2022/11/24 11:39:38;;;;;;;73.43;33.13;;;1.30;1.00;;;;;;10083095;29;20435;-83
2022/11/24 11:45:04;;;;;;;70.90;33.60;;;1.30;1.00;;;;;;10079190;29;20365;-84
2022/11/24 11:50:51;;;;;;;64.87;29.90;;;1.30;1.00;;;;;;10065353;29;20205;-83
2022/11/24 11:56:48;;;;;;;78.47;31.77;;;1.30;1.00;;;;;;10063386;29;20237;-85
2022/11/24 12:02:25;;;;;;;74.03;33.07;;;1.40;1.00;;;;;;10076716;29;20224;-83
2022/11/24 12:08:11;;;;;;;78.63;33.87;;;1.40;1.00;;;;;;10040014;29;20217;-90
2022/11/24 12:14:09;;;;;;;87.97;38.23;;;1.30;1.00;;;;;;10092556;29;20233;-85
2022/11/24 12:19:55;;;;;;;95.77;39.83;;;1.20;1.00;;;;;;10049481;29;20297;-81
2022/11/24 12:25:28;;;;;;;83.60;36.10;;;1.20;1.00;;;;;;10096842;29;20456;-81
2022/11/24 12:31:08;;;;;;;91.23;39.70;;;1.20;1.00;;;;;;10065915;29;20426;-83
2022/11/24 12:36:41;;;;;;;74.57;35.77;;;1.30;1.00;;;;;;10046579;29;20233;-90
2022/11/24 12:42:44;;;;;;;71.80;34.20;;;1.40;1.00;;;;;;10059662;29;20214;-87
2022/11/24 12:48:17;;;;;;;93.67;40.50;;;1.40;1.00;;;;;;10080170;29;20229;-83
2022/11/24 12:53:39;;;;;;;89.07;40.20;;;1.50;1.00;;;;;;10042042;29;20262;-82
2022/11/24 12:59:03;;;;;;;81.93;36.17;;;1.40;1.00;;;;;;10043743;29;20246;-84
2022/11/24 13:04:41;;;;;;;82.60;34.70;;;1.30;1.00;;;;;;10043925;29;20210;-82
2022/11/24 13:10:24;;;;;;;78.07;34.23;;;1.30;1.00;;;;;;10020411;29;20218;-83
2022/11/24 13:16:11;;;;;;;78.87;35.80;;;1.30;1.00;;;;;;10049300;29;20260;-81
2022/11/24 13:22:08;;;;;;;73.50;32.40;;;1.20;1.00;;;;;;10063151;29;20457;-82
2022/11/24 13:27:41;;;;;;;79.20;32.73;;;1.30;1.00;;;;;;10058018;29;20235;-83
2022/11/24 13:33:25;;;;;;;74.90;32.67;;;1.30;1.00;;;;;;10071999;29;20235;-83
2022/11/24 13:38:47;;;;;;;76.43;30.30;;;1.30;1.00;;;;;;10067661;29;20522;-84
2022/11/24 13:44:14;;;;;;;81.17;32.63;;;1.40;1.00;;;;;;10068987;29;20407;-82
2022/11/24 13:49:39;;;;;;;81.77;34.43;;;1.50;1.00;;;;;;10117863;29;20221;-88
2022/11/24 13:55:22;;;;;;;71.47;33.70;;;1.40;1.00;;;;;;10085387;29;20235;-82
2022/11/24 14:01:01;;;;;;;86.43;37.10;;;1.50;1.00;;;;;;10054124;29;20509;-84
2022/11/24 14:06:29;;;;;;;98.30;40.10;;;1.50;1.00;;;;;;10023338;29;20226;-84
2022/11/24 14:12:00;;;;;;;95.73;39.03;;;1.40;1.00;;;;;;10041524;29;20226;-83
2022/11/24 14:17:23;;;;;;;86.50;36.87;;;1.50;1.00;;;;;;10055933;29;20247;-80
2022/11/24 14:22:44;;;;;;;90.67;38.87;;;1.40;1.00;;;;;;10048682;29;20221;-80
2022/11/24 14:28:20;;;;;;;88.00;37.80;;;1.40;1.00;;;;;;10051233;29;20664;-83
2022/11/24 14:33:41;;;;;;;80.40;37.23;;;1.50;1.00;;;;;;10082469;29;20249;-79
2022/11/24 14:39:02;;;;;;;103.27;41.30;;;1.50;1.00;;;;;;10040386;29;20559;-79
2022/11/24 14:44:44;;;;;;;90.27;38.27;;;1.50;1.00;;;;;;10065163;29;20209;-86
2022/11/24 14:50:15;;;;;;;82.77;34.07;;;1.50;1.00;;;;;;10064684;29;20210;-87
2022/11/24 14:55:38;;;;;;;70.63;29.77;;;1.60;1.00;;;;;;10062910;29;20233;-80
2022/11/24 15:01:29;;;;;;;59.33;27.27;;;1.60;1.00;;;;;;10064050;29;20206;-79
2022/11/24 15:07:03;;;;;;;64.90;29.17;;;1.70;1.00;;;;;;10070332;29;20251;-80
2022/11/24 15:12:27;;;;;;;59.80;29.60;;;1.60;1.00;;;;;;10076705;29;20493;-79
2022/11/24 15:17:57;;;;;;;67.67;30.80;;;1.60;1.00;;;;;;10028307;29;20285;-79
2022/11/24 15:23:31;;;;;;;68.63;31.67;;;1.50;1.00;;;;;;10037923;29;20212;-82
2022/11/24 15:28:52;;;;;;;62.83;28.47;;;1.50;1.00;;;;;;10063252;29;20200;-79
2022/11/24 15:34:13;;;;;;;65.00;33.67;;;1.50;1.00;;;;;;10056055;29;20241;-81
2022/11/24 15:39:34;;;;;;;80.87;38.97;;;1.40;1.00;;;;;;10112941;29;20539;-82
2022/11/24 15:44:55;;;;;;;71.70;36.37;;;1.40;1.00;;;;;;10096566;29;20228;-79
2022/11/24 15:50:17;;;;;;;70.87;34.47;;;1.50;1.00;;;;;;10061407;29;20202;-81
2022/11/24 15:55:39;;;;;;;78.97;35.97;;;1.60;1.00;;;;;;10030457;29;20230;-91
2022/11/24 16:01:00;;;;;;;65.47;30.83;;;1.60;1.00;;;;;;10056515;29;20206;-86
2022/11/24 16:06:22;;;;;;;63.03;29.23;;;1.70;1.00;;;;;;10064810;29;20277;-84
2022/11/24 16:11:44;;;;;;;50.83;26.07;;;1.70;1.00;;;;;;10064987;29;20199;-79
2022/11/24 16:17:06;;;;;;;51.10;23.50;;;1.70;1.00;;;;;;10062486;29;20306;-79
2022/11/24 16:22:27;;;;;;;52.93;25.17;;;1.70;1.00;;;;;;10031575;29;20358;-78
2022/11/24 16:27:48;;;;;;;50.90;23.27;;;1.70;1.00;;;;;;10057462;29;20500;-84
2022/11/24 16:33:09;;;;;;;57.20;26.70;;;1.70;1.00;;;;;;10073671;29;20251;-83
2022/11/24 16:38:31;;;;;;;51.30;23.73;;;1.70;1.00;;;;;;10075413;29;20206;-80
2022/11/24 16:43:52;;;;;;;48.80;24.10;;;1.70;1.00;;;;;;10077339;29;20209;-77
2022/11/24 16:49:13;;;;;;;48.07;23.57;;;1.70;1.00;;;;;;10083992;29;20384;-79
2022/11/24 16:54:34;;;;;;;55.73;25.57;;;1.70;1.00;;;;;;10087004;29;20229;-78
2022/11/24 16:59:55;;;;;;;56.10;27.43;;;1.60;1.00;;;;;;10064856;29;20199;-78
2022/11/24 17:05:17;;;;;;;53.67;26.20;;;1.60;1.00;;;;;;10063151;29;20213;-79
2022/11/24 17:10:38;;;;;;;65.43;30.77;;;1.60;1.00;;;;;;10034598;29;20281;-76
2022/11/24 17:16:03;;;;;;;72.80;35.27;;;1.50;1.00;;;;;;10055389;29;20285;-77
2022/11/24 17:21:26;;;;;;;89.67;40.03;;;1.50;1.00;;;;;;10032784;29;20259;-85
2022/11/24 17:26:50;;;;;;;77.60;40.07;;;1.60;1.00;;;;;;10108196;29;20223;-87
2022/11/24 17:32:11;;;;;;;81.53;40.60;;;1.60;1.00;;;;;;10079410;29;20449;-86
2022/11/24 17:37:32;;;;;;;87.77;41.83;;;1.50;1.00;;;;;;10070671;29;20211;-77
2022/11/24 17:42:57;;;;;;;78.60;38.97;;;1.50;1.00;;;;;;10031884;29;20210;-86
2022/11/24 17:48:18;;;;;;;79.43;38.07;;;1.50;1.00;;;;;;10071754;29;20222;-81
2022/11/24 17:53:41;;;;;;;75.93;35.80;;;1.50;1.00;;;;;;10056837;29;20245;-86
2022/11/24 17:59:02;;;;;;;85.23;37.67;;;1.40;1.00;;;;;;10063926;29;20363;-80
2022/11/24 18:04:23;;;;;;;87.37;41.57;;;1.50;1.00;;;;;;10044366;29;20191;-79
2022/11/24 18:09:44;;;;;;;87.30;41.10;;;1.60;1.00;;;;;;10054113;29;20234;-79
2022/11/24 18:15:19;;;;;;;96.50;44.00;;;1.60;1.00;;;;;;10555109;27;20551;-87
2022/11/24 18:20:41;;;;;;;112.17;47.67;;;1.60;1.00;;;;;;10554344;28;20190;-79
2022/11/24 18:26:03;;;;;;;125.33;55.60;;;1.70;1.00;;;;;;10523449;28;20209;-80
2022/11/24 18:31:25;;;;;;;125.97;58.43;;;1.80;1.00;;;;;;10531628;28;20226;-79
2022/11/24 18:36:49;;;;;;;95.80;48.87;;;1.80;1.00;;;;;;10511452;28;20420;-83
2022/11/24 18:42:10;;;;;;;77.70;39.60;;;1.80;1.00;;;;;;10526227;28;20477;-84
2022/11/24 18:47:32;;;;;;;62.53;31.20;;;1.80;1.00;;;;;;10520133;28;20244;-90
2022/11/24 18:52:53;;;;;;;58.27;29.53;;;1.80;1.00;;;;;;10538767;28;20226;-78
2022/11/24 18:58:15;;;;;;;55.27;28.20;;;1.80;1.00;;;;;;10552294;28;20190;-77
2022/11/24 19:03:38;;;;;;;53.07;26.10;;;1.90;1.00;;;;;;10510088;28;20274;-85
2022/11/24 19:09:13;;;;;;;54.53;26.50;;;1.90;1.00;;;;;;10510530;28;20199;-79
2022/11/24 19:14:34;;;;;;;53.90;26.47;;;1.80;1.00;;;;;;10528948;28;20246;-81
2022/11/24 19:19:55;;;;;;;92.13;39.50;;;1.80;1.00;;;;;;10551725;28;20182;-81
2022/11/24 19:25:16;;;;;;;90.27;41.13;;;1.70;1.00;;;;;;10516439;28;20229;-80
2022/11/24 19:30:38;;;;;;;85.83;37.70;;;1.70;1.00;;;;;;10482124;28;20242;-80
2022/11/24 19:36:06;;;;;;;70.23;33.23;;;1.70;1.00;;;;;;10489174;28;20232;-84
2022/11/24 19:41:29;;;;;;;89.33;42.93;;;1.80;1.00;;;;;;10522206;28;20204;-83
2022/11/24 19:46:50;;;;;;;109.20;49.47;;;1.70;1.00;;;;;;10522420;28;20523;-88
2022/11/24 19:52:12;;;;;;;110.00;48.23;;;1.60;1.00;;;;;;10522304;28;20535;-80
2022/11/24 19:57:33;;;;;;;85.70;38.03;;;1.60;1.00;;;;;;10522832;28;20187;-78
2022/11/24 20:02:53;;;;;;;78.20;33.97;;;1.60;1.00;;;;;;10506936;28;20195;-79
2022/11/24 20:08:15;;;;;;;82.03;32.50;;;1.70;1.00;;;;;;10522343;28;20195;-79
2022/11/24 20:13:37;;;;;;;82.83;35.20;;;1.70;1.00;;;;;;10505515;28;20232;-84
2022/11/24 20:19:04;;;;;;;82.03;35.10;;;1.60;1.00;;;;;;10494022;28;20189;-80
2022/11/24 20:24:25;;;;;;;92.10;38.47;;;1.50;1.00;;;;;;10494462;28;20271;-79
2022/11/24 20:29:46;;;;;;;95.27;38.83;;;1.50;1.00;;;;;;10515453;28;20204;-80
2022/11/24 20:35:08;;;;;;;98.03;41.10;;;1.50;1.00;;;;;;10494079;28;20470;-85
2022/11/24 20:40:32;;;;;;;108.60;40.93;;;1.50;17.40;;;;;;10518813;28;20183;-81
2022/11/24 20:45:53;;;;;;;104.10;41.20;;;1.40;13.40;;;;;;10519406;28;20194;-81
2022/11/24 20:51:19;;;;;;;104.17;40.93;;;1.40;22.60;;;;;;10520794;28;20215;-79
2022/11/24 20:56:42;;;;;;;99.23;40.77;;;1.40;33.90;;;;;;10490590;28;20230;-79
2022/11/24 21:02:03;;;;;;;105.50;42.67;;;1.50;48.10;;;;;;10505074;28;20211;-81
2022/11/24 21:07:24;;;;;;;95.57;40.57;;;1.50;29.20;;;;;;10547423;28;20194;-89
2022/11/24 21:12:46;;;;;;;103.03;38.20;;;1.60;29.20;;;;;;10502407;28;20239;-78
2022/11/24 21:18:07;;;;;;;100.43;41.53;;;1.70;13.80;;;;;;10483043;28;20190;-78
2022/11/24 21:23:28;;;;;;;120.50;50.33;;;1.70;1.00;;;;;;10518876;28;20217;-79
2022/11/24 21:28:49;;;;;;;110.90;44.20;;;1.60;1.00;;;;;;10481970;28;20509;-78
2022/11/24 21:34:14;;;;;;;299.67;112.10;;;1.60;4.20;;;;;;10507618;28;20227;-79
2022/11/24 21:39:35;;;;;;;139.20;54.30;;;1.50;3.30;;;;;;10417465;28;20542;-79
2022/11/24 21:44:59;;;;;;;104.30;43.87;;;1.50;3.70;;;;;;10433237;28;20384;-84
2022/11/24 21:50:21;;;;;;;121.13;46.83;;;1.40;23.50;;;;;;10394439;28;20201;-87
2022/11/24 21:55:42;;;;;;;104.33;42.20;;;1.50;32.70;;;;;;10412960;28;20235;-85
2022/11/24 22:01:09;;;;;;;111.43;45.70;;;1.50;40.40;;;;;;10423081;28;20203;-80
2022/11/24 22:06:32;;;;;;;126.73;51.03;;;1.50;30.20;;;;;;10421350;28;20486;-79
2022/11/24 22:11:54;;;;;;;111.87;48.40;;;1.50;29.60;;;;;;10427201;28;20460;-86
2022/11/24 22:17:15;;;;;;;116.50;47.37;;;1.40;39.20;;;;;;10410815;28;20481;-79
2022/11/24 22:22:36;;;;;;;127.63;52.60;;;1.40;54.20;;;;;;10448405;28;20207;-78
2022/11/24 22:27:57;;;;;;;124.33;50.97;;;1.40;85.90;;;;;;10433924;28;20195;-79
2022/11/24 22:33:19;;;;;;;115.00;49.87;;;1.40;66.50;;;;;;10413832;28;20251;-79
2022/11/24 22:38:40;;;;;;;109.13;47.10;;;1.30;78.30;;;;;;10429904;28;20223;-80
2022/11/24 22:44:02;;;;;;;102.13;46.17;;;1.30;91.10;;;;;;10433843;28;20207;-82
2022/11/24 22:49:24;;;;;;;109.90;44.60;;;1.30;99.10;;;;;;10420394;28;20200;-79
2022/11/24 22:54:45;;;;;;;107.03;45.33;;;1.30;94.80;;;;;;10434588;28;20521;-79
2022/11/24 23:00:07;;;;;;;99.97;43.60;;;1.30;96.00;;;;;;10442073;28;20204;-77
2022/11/24 23:05:28;;;;;;;93.23;42.60;;;1.40;71.90;;;;;;10452621;28;20191;-79
2022/11/24 23:10:49;;;;;;;91.23;40.43;;;1.50;83.20;;;;;;10442160;28;20247;-79
2022/11/24 23:16:16;;;;;;;99.90;42.27;;;1.50;60.70;;;;;;10426817;28;20204;-79
2022/11/24 23:21:37;;;;;;;83.33;37.30;;;1.50;51.10;;;;;;10440521;28;20396;-79
2022/11/24 23:26:58;;;;;;;79.77;35.73;;;1.50;21.10;;;;;;10431600;28;20259;-85
2022/11/24 23:32:20;;;;;;;79.67;35.37;;;1.40;20.30;;;;;;10439786;28;20281;-80
2022/11/24 23:37:41;;;;;;;75.00;33.63;;;1.40;33.70;;;;;;10439012;28;20208;-79
2022/11/24 23:43:20;;;;;;;79.80;36.00;;;1.30;16.00;;;;;;10440372;28;20478;-83
2022/11/24 23:48:42;;;;;;;81.77;38.50;;;1.30;26.40;;;;;;10408203;28;20239;-80
2022/11/24 23:54:08;;;;;;;102.93;45.13;;;1.30;33.40;;;;;;10397706;28;20232;-87
2022/11/24 23:59:46;;;;;;;91.83;42.20;;;1.30;57.60;;;;;;10408695;28;20255;-87
